createdAt,value
2023-02-14T00:00:56.808Z,2.20
2023-02-14T00:03:23.587Z,2.20
2023-02-14T00:05:50.226Z,2.10
2023-02-14T00:08:16.857Z,2.10
2023-02-14T00:10:43.470Z,2.00
2023-02-14T00:13:10.071Z,2.00
2023-02-14T00:15:36.688Z,2.00
2023-02-14T00:18:03.533Z,2.10
2023-02-14T00:20:30.242Z,2.00
2023-02-14T00:22:56.849Z,2.00
2023-02-14T00:25:24.555Z,2.00
2023-02-14T00:27:51.351Z,2.00
2023-02-14T00:30:18.024Z,1.90
2023-02-14T00:32:44.662Z,1.90
2023-02-14T00:35:11.612Z,1.90
2023-02-14T00:37:38.239Z,1.90
2023-02-14T00:40:07.124Z,1.80
2023-02-14T00:42:33.814Z,1.80
2023-02-14T00:45:00.681Z,1.70
2023-02-14T00:47:27.354Z,1.60
2023-02-14T00:49:54.121Z,1.40
2023-02-14T00:52:20.766Z,1.30
2023-02-14T00:54:47.538Z,1.20
2023-02-14T00:57:14.317Z,1.10
2023-02-14T00:59:40.940Z,1.10
2023-02-14T01:02:07.624Z,1.00
2023-02-14T01:04:34.458Z,1.00
2023-02-14T01:07:01.069Z,0.90
2023-02-14T01:09:27.778Z,1.00
2023-02-14T01:11:54.468Z,1.00
2023-02-14T01:14:21.113Z,1.00
2023-02-14T01:16:47.974Z,1.00
2023-02-14T01:19:14.705Z,1.00
2023-02-14T01:21:41.876Z,1.00
2023-02-14T01:24:09.513Z,1.00
2023-02-14T01:26:36.448Z,1.10
2023-02-14T01:29:04.755Z,1.10
2023-02-14T01:31:33.458Z,1.10
2023-02-14T01:34:00.777Z,1.10
2023-02-14T01:36:30.956Z,1.10
2023-02-14T01:39:04.524Z,1.10
2023-02-14T01:41:34.578Z,1.10
2023-02-14T01:44:07.763Z,1.10
2023-02-14T01:46:37.352Z,1.10
2023-02-14T01:49:13.416Z,1.10
2023-02-14T01:51:44.622Z,1.10
2023-02-14T01:54:12.526Z,1.20
2023-02-14T01:56:43.931Z,1.10
2023-02-14T01:59:15.602Z,1.20
2023-02-14T02:01:42.839Z,1.10
2023-02-14T02:04:15.080Z,1.10
2023-02-14T02:06:49.468Z,1.10
2023-02-14T02:09:34.370Z,1.10
2023-02-14T02:12:02.056Z,1.70
2023-02-14T02:14:29.164Z,1.00
2023-02-14T02:17:16.677Z,1.00
2023-02-14T02:20:13.837Z,0.90
2023-02-14T02:22:49.563Z,0.90
2023-02-14T02:25:37.026Z,0.90
2023-02-14T02:28:03.659Z,0.80
2023-02-14T02:30:42.117Z,0.80
2023-02-14T02:33:49.994Z,0.80
2023-02-14T02:36:36.996Z,0.70
2023-02-14T02:39:22.065Z,0.60
2023-02-14T02:42:16.365Z,0.50
2023-02-14T02:45:03.681Z,0.50
2023-02-14T02:47:37.774Z,0.40
2023-02-14T02:50:42.362Z,0.30
2023-02-14T02:53:22.734Z,0.30
2023-02-14T02:56:14.364Z,0.30
2023-02-14T02:58:43.488Z,0.40
2023-02-14T03:01:14.175Z,0.40
2023-02-14T03:04:03.763Z,0.40
2023-02-14T03:06:31.582Z,0.40
2023-02-14T03:08:58.208Z,0.40
2023-02-14T03:11:25.724Z,0.30
2023-02-14T03:14:05.326Z,0.30
2023-02-14T03:16:36.158Z,0.20
2023-02-14T03:19:28.080Z,0.20
2023-02-14T03:22:08.732Z,0.20
2023-02-14T03:24:49.076Z,0.20
2023-02-14T03:27:30.949Z,0.10
2023-02-14T03:30:24.747Z,0.10
2023-02-14T03:32:57.294Z,0.10
2023-02-14T03:35:43.625Z,0.10
2023-02-14T03:38:27.239Z,0.00
2023-02-14T03:41:04.499Z,0.00
2023-02-14T03:43:39.095Z,0.00
2023-02-14T03:46:38.579Z,0.00
2023-02-14T03:49:09.878Z,0.00
2023-02-14T03:51:38.077Z,0.00
2023-02-14T03:54:08.903Z,-0.10
2023-02-14T03:56:46.781Z,-0.10
2023-02-14T03:59:20.637Z,-0.10
2023-02-14T04:01:55.205Z,-0.10
2023-02-14T04:04:26.957Z,-0.10
2023-02-14T04:06:53.740Z,-0.20
2023-02-14T04:09:20.449Z,-0.20
2023-02-14T04:11:50.353Z,-0.20
2023-02-14T04:14:17.859Z,-0.30
2023-02-14T04:17:03.404Z,-0.40
2023-02-14T04:19:30.084Z,-0.40
2023-02-14T04:21:56.714Z,-0.50
2023-02-14T04:24:23.318Z,-0.50
2023-02-14T04:27:09.934Z,-0.50
2023-02-14T04:29:38.897Z,-0.50
2023-02-14T04:32:11.145Z,-0.50
2023-02-14T04:34:38.136Z,-0.50
2023-02-14T04:37:05.364Z,-0.50
2023-02-14T04:39:32.137Z,-0.50
2023-02-14T04:41:58.778Z,-0.50
2023-02-14T04:44:25.764Z,-0.50
2023-02-14T04:46:52.932Z,-0.50
2023-02-14T04:49:19.708Z,-0.50
2023-02-14T04:51:46.650Z,-0.60
2023-02-14T04:54:13.420Z,-0.60
2023-02-14T04:56:40.205Z,-0.70
2023-02-14T04:59:06.983Z,-0.70
2023-02-14T05:01:33.648Z,-0.80
2023-02-14T05:04:00.523Z,-0.80
2023-02-14T05:06:28.858Z,-0.80
2023-02-14T05:08:56.751Z,-0.90
2023-02-14T05:11:23.578Z,-1.00
2023-02-14T05:13:50.553Z,-1.00
2023-02-14T05:16:17.269Z,-0.90
2023-02-14T05:18:44.098Z,-0.80
2023-02-14T05:21:11.213Z,-0.80
2023-02-14T05:23:38.046Z,-0.80
2023-02-14T05:26:04.900Z,-0.70
2023-02-14T05:28:31.736Z,-0.60
2023-02-14T05:30:59.120Z,-0.60
2023-02-14T05:33:26.083Z,-0.50
2023-02-14T05:35:53.001Z,-0.50
2023-02-14T05:38:20.000Z,-0.40
2023-02-14T05:40:46.785Z,-0.50
2023-02-14T05:43:13.487Z,-0.60
2023-02-14T05:45:40.185Z,-0.60
2023-02-14T05:48:06.865Z,-0.60
2023-02-14T05:50:33.719Z,-0.60
2023-02-14T05:53:00.970Z,-0.50
2023-02-14T05:55:27.746Z,-0.50
2023-02-14T05:57:54.789Z,-0.40
2023-02-14T06:00:22.553Z,-0.40
2023-02-14T06:02:49.173Z,-0.30
2023-02-14T06:05:17.792Z,-0.30
2023-02-14T06:07:50.384Z,-0.30
2023-02-14T06:10:22.138Z,-0.20
2023-02-14T06:12:50.366Z,-0.20
2023-02-14T06:15:17.735Z,-0.20
2023-02-14T06:17:44.606Z,-0.30
2023-02-14T06:20:11.798Z,-0.20
2023-02-14T06:22:39.065Z,-0.20
2023-02-14T06:25:06.470Z,-0.20
2023-02-14T06:27:33.497Z,-0.20
2023-02-14T06:30:00.741Z,-0.10
2023-02-14T06:32:27.407Z,0.00
2023-02-14T06:34:54.073Z,0.00
2023-02-14T06:37:20.807Z,0.10
2023-02-14T06:39:47.479Z,0.30
2023-02-14T06:42:14.137Z,0.50
2023-02-14T06:44:40.779Z,0.70
2023-02-14T06:47:08.500Z,0.90
2023-02-14T06:49:35.161Z,1.10
2023-02-14T06:52:01.987Z,1.20
2023-02-14T06:54:28.633Z,1.20
2023-02-14T06:56:55.278Z,1.30
2023-02-14T06:59:22.319Z,1.40
2023-02-14T07:01:48.986Z,1.50
2023-02-14T07:04:15.967Z,1.60
2023-02-14T07:06:42.575Z,1.70
2023-02-14T07:09:09.169Z,1.80
2023-02-14T07:11:35.783Z,1.90
2023-02-14T07:14:02.387Z,2.00
2023-02-14T07:16:29.136Z,2.00
2023-02-14T07:18:55.761Z,2.10
2023-02-14T07:21:22.393Z,2.20
2023-02-14T07:23:50.071Z,2.30
2023-02-14T07:26:18.190Z,2.30
2023-02-14T07:28:49.172Z,2.10
2023-02-14T07:31:17.034Z,1.90
2023-02-14T07:33:44.171Z,1.80
2023-02-14T07:36:11.649Z,1.70
2023-02-14T07:38:38.376Z,1.60
2023-02-14T07:41:05.206Z,1.60
2023-02-14T07:43:34.314Z,1.60
2023-02-14T07:46:02.034Z,1.60
2023-02-14T07:48:31.043Z,1.60
2023-02-14T07:50:59.520Z,1.60
2023-02-14T07:53:26.436Z,1.60
2023-02-14T07:55:53.119Z,1.70
2023-02-14T07:58:19.773Z,1.70
2023-02-14T08:00:46.567Z,1.70
2023-02-14T08:03:14.308Z,1.80
2023-02-14T08:05:41.249Z,1.80
2023-02-14T08:08:07.981Z,1.80
2023-02-14T08:10:34.665Z,1.90
2023-02-14T08:13:01.456Z,1.90
2023-02-14T08:15:52.723Z,2.00
2023-02-14T08:18:21.481Z,2.00
2023-02-14T08:20:51.200Z,2.10
2023-02-14T08:23:19.843Z,2.10
2023-02-14T08:25:48.290Z,2.20
2023-02-14T08:28:15.181Z,2.20
2023-02-14T08:30:43.786Z,2.40
2023-02-14T08:33:10.770Z,2.40
2023-02-14T08:35:37.569Z,2.50
2023-02-14T08:38:04.690Z,2.50
2023-02-14T08:40:31.461Z,2.60
2023-02-14T08:42:58.091Z,2.70
2023-02-14T08:45:24.745Z,2.70
2023-02-14T08:47:51.398Z,2.80
2023-02-14T08:50:19.336Z,2.80
2023-02-14T08:52:46.219Z,2.80
2023-02-14T08:55:13.903Z,2.80
2023-02-14T08:57:40.975Z,2.90
2023-02-14T09:00:09.797Z,2.80
2023-02-14T09:02:36.626Z,2.90
2023-02-14T09:05:03.909Z,2.90
2023-02-14T09:07:30.619Z,2.90
2023-02-14T09:09:57.312Z,3.00
2023-02-14T09:12:24.035Z,3.00
2023-02-14T09:14:50.719Z,3.10
2023-02-14T09:17:17.758Z,3.10
2023-02-14T09:19:44.458Z,3.00
2023-02-14T09:22:11.727Z,3.10
2023-02-14T09:24:39.714Z,3.20
2023-02-14T09:27:06.412Z,3.20
2023-02-14T09:29:33.808Z,3.30
2023-02-14T09:32:01.828Z,3.40
2023-02-14T09:34:29.034Z,3.50
2023-02-14T09:37:14.540Z,3.60
2023-02-14T09:39:41.263Z,4.60
2023-02-14T09:42:45.566Z,3.80
2023-02-14T09:45:19.500Z,3.80
2023-02-14T09:47:52.147Z,3.70
2023-02-14T09:50:34.424Z,3.70
2023-02-14T09:53:13.498Z,3.70
2023-02-14T09:55:47.350Z,3.80
2023-02-14T09:58:21.076Z,3.80
2023-02-14T10:01:00.265Z,3.90
2023-02-14T10:03:48.708Z,4.00
2023-02-14T10:06:30.388Z,4.00
2023-02-14T10:09:18.019Z,4.00
2023-02-14T10:11:47.473Z,4.00
2023-02-14T10:14:30.889Z,4.10
2023-02-14T10:17:07.924Z,4.20
2023-02-14T10:19:49.899Z,4.20
2023-02-14T10:22:19.829Z,4.20
2023-02-14T10:25:02.044Z,4.20
2023-02-14T10:27:42.358Z,4.20
2023-02-14T10:30:12.509Z,4.30
2023-02-14T10:32:52.712Z,4.30
2023-02-14T10:35:43.448Z,4.10
2023-02-14T10:38:34.500Z,4.20
2023-02-14T10:41:16.179Z,4.20
2023-02-14T10:43:53.201Z,4.10
2023-02-14T10:46:33.285Z,4.00
2023-02-14T10:49:21.772Z,4.00
2023-02-14T10:52:13.575Z,4.10
2023-02-14T10:54:43.933Z,4.10
2023-02-14T10:57:44.709Z,4.10
2023-02-14T11:00:25.264Z,4.20
2023-02-14T11:02:59.000Z,4.00
2023-02-14T11:05:37.921Z,3.90
2023-02-14T11:08:25.297Z,3.90
2023-02-14T11:10:52.976Z,3.90
2023-02-14T11:13:33.996Z,3.80
2023-02-14T11:16:03.278Z,3.90
2023-02-14T11:18:33.024Z,4.00
2023-02-14T11:21:02.834Z,4.20
2023-02-14T11:23:37.174Z,4.30
2023-02-14T11:26:09.894Z,4.50
2023-02-14T11:28:41.004Z,4.60
2023-02-14T11:31:09.292Z,4.70
2023-02-14T11:33:42.700Z,4.60
2023-02-14T11:36:14.934Z,4.50
2023-02-14T11:38:43.951Z,4.40
2023-02-14T11:41:14.232Z,4.30
2023-02-14T11:43:43.619Z,4.10
2023-02-14T11:46:15.169Z,4.10
2023-02-14T11:49:03.716Z,4.20
2023-02-14T11:51:45.413Z,4.30
2023-02-14T11:54:34.916Z,4.50
2023-02-14T11:57:24.410Z,4.50
2023-02-14T11:59:54.988Z,4.60
2023-02-14T12:02:51.397Z,4.70
2023-02-14T12:05:23.516Z,4.90
2023-02-14T12:07:56.054Z,4.80
2023-02-14T12:10:25.992Z,4.80
2023-02-14T12:12:59.796Z,4.90
2023-02-14T12:15:34.395Z,5.00
2023-02-14T12:18:09.880Z,5.00
2023-02-14T12:20:56.602Z,4.90
2023-02-14T12:23:43.881Z,5.10
2023-02-14T12:26:27.595Z,4.90
2023-02-14T12:29:17.440Z,4.80
2023-02-14T12:31:46.450Z,4.90
2023-02-14T12:34:14.726Z,4.90
2023-02-14T12:36:41.736Z,5.00
2023-02-14T12:39:13.915Z,5.20
2023-02-14T12:42:06.169Z,5.30
2023-02-14T12:45:00.121Z,5.40
2023-02-14T12:47:41.756Z,5.50
2023-02-14T12:50:46.747Z,5.60
2023-02-14T12:54:01.754Z,5.80
2023-02-14T12:56:37.439Z,6.00
2023-02-14T12:59:45.769Z,6.10
2023-02-14T13:02:34.117Z,6.20
2023-02-14T13:05:28.692Z,6.20
2023-02-14T13:08:15.676Z,6.30
2023-02-14T13:11:10.153Z,6.40
2023-02-14T13:14:04.450Z,6.50
2023-02-14T13:16:31.567Z,6.60
2023-02-14T13:19:32.205Z,6.70
2023-02-14T13:22:01.251Z,6.80
2023-02-14T13:24:35.348Z,6.90
2023-02-14T13:27:05.714Z,7.00
2023-02-14T13:29:45.507Z,7.00
2023-02-14T13:32:16.784Z,7.00
2023-02-14T13:34:48.468Z,7.00
2023-02-14T13:37:22.415Z,7.00
2023-02-14T13:39:55.347Z,7.10
2023-02-14T13:42:46.833Z,7.10
2023-02-14T13:45:40.654Z,7.20
2023-02-14T13:48:11.716Z,7.20
2023-02-14T13:50:52.359Z,7.20
2023-02-14T13:53:46.854Z,7.20
2023-02-14T13:56:15.246Z,7.20
2023-02-14T13:59:05.296Z,7.10
2023-02-14T14:01:35.831Z,7.10
2023-02-14T14:04:26.311Z,7.10
2023-02-14T14:07:13.428Z,7.20
2023-02-14T14:09:43.156Z,7.20
2023-02-14T14:12:28.275Z,7.30
2023-02-14T14:15:06.867Z,7.30
2023-02-14T14:17:41.361Z,7.40
2023-02-14T14:20:18.642Z,7.50
2023-02-14T14:23:00.003Z,7.50
2023-02-14T14:25:30.864Z,7.50
2023-02-14T14:27:58.365Z,7.50
2023-02-14T14:30:32.913Z,7.60
2023-02-14T14:33:15.737Z,7.70
2023-02-14T14:35:53.889Z,7.80
2023-02-14T14:38:20.657Z,7.90
2023-02-14T14:40:48.887Z,8.00
2023-02-14T14:43:25.476Z,8.20
2023-02-14T14:45:53.331Z,8.40
2023-02-14T14:48:30.006Z,8.60
2023-02-14T14:50:57.676Z,8.70
2023-02-14T14:53:42.403Z,8.80
2023-02-14T14:56:18.152Z,9.10
2023-02-14T14:58:45.059Z,9.50
2023-02-14T15:01:21.165Z,10.40
2023-02-14T15:03:47.985Z,11.10
2023-02-14T15:06:21.117Z,11.80
2023-02-14T15:08:49.560Z,12.30
2023-02-14T15:11:46.069Z,12.70
2023-02-14T15:14:24.160Z,13.10
2023-02-14T15:16:53.790Z,13.20
2023-02-14T15:19:44.282Z,13.30
2023-02-14T15:22:26.471Z,13.00
2023-02-14T15:24:53.637Z,12.90
2023-02-14T15:27:23.171Z,12.80
2023-02-14T15:30:02.104Z,12.90
2023-02-14T15:32:32.298Z,13.10
2023-02-14T15:35:01.896Z,13.20
2023-02-14T15:37:29.104Z,13.30
2023-02-14T15:40:00.263Z,13.40
2023-02-14T15:42:32.491Z,13.20
2023-02-14T15:45:35.774Z,13.00
2023-02-14T15:48:24.115Z,12.80
2023-02-14T15:50:52.941Z,12.60
2023-02-14T15:53:19.515Z,12.30
2023-02-14T15:55:50.390Z,12.00
2023-02-14T15:58:29.556Z,11.80
2023-02-14T16:00:56.345Z,11.50
2023-02-14T16:03:28.920Z,11.30
2023-02-14T16:05:55.672Z,10.70
2023-02-14T16:08:29.355Z,10.00
2023-02-14T16:11:02.595Z,9.40
2023-02-14T16:13:41.960Z,8.80
2023-02-14T16:16:11.219Z,8.30
2023-02-14T16:18:56.525Z,8.00
2023-02-14T16:21:28.889Z,7.60
2023-02-14T16:24:08.026Z,7.30
2023-02-14T16:26:37.879Z,7.00
2023-02-14T16:29:05.982Z,6.60
2023-02-14T16:31:33.662Z,6.40
2023-02-14T16:34:00.415Z,6.10
2023-02-14T16:36:29.949Z,5.90
2023-02-14T16:38:57.709Z,5.60
2023-02-14T16:41:27.211Z,5.40
2023-02-14T16:43:55.086Z,5.20
2023-02-14T16:46:28.864Z,5.00
2023-02-14T16:48:55.843Z,4.90
2023-02-14T16:51:25.743Z,4.70
2023-02-14T16:53:53.715Z,4.60
2023-02-14T16:56:23.612Z,4.40
2023-02-14T16:58:50.232Z,4.30
2023-02-14T17:01:17.071Z,4.20
2023-02-14T17:03:44.590Z,4.00
2023-02-14T17:06:15.725Z,3.90
2023-02-14T17:08:43.125Z,3.70
2023-02-14T17:11:10.485Z,3.60
2023-02-14T17:13:41.143Z,3.50
2023-02-14T17:16:11.709Z,3.40
2023-02-14T17:18:40.649Z,3.30
2023-02-14T17:21:07.287Z,3.20
2023-02-14T17:23:33.903Z,3.20
2023-02-14T17:26:00.782Z,3.10
2023-02-14T17:28:27.615Z,3.10
2023-02-14T17:30:54.377Z,3.00
2023-02-14T17:33:21.339Z,2.90
2023-02-14T17:35:48.448Z,2.80
2023-02-14T17:38:15.183Z,2.80
2023-02-14T17:40:41.805Z,2.70
2023-02-14T17:43:08.435Z,2.70
2023-02-14T17:45:35.509Z,2.60
2023-02-14T17:48:02.626Z,2.60
2023-02-14T17:50:29.378Z,2.50
2023-02-14T17:52:56.955Z,2.50
2023-02-14T17:55:23.691Z,2.50
2023-02-14T17:57:53.098Z,2.40
2023-02-14T18:00:23.798Z,2.40
2023-02-14T18:02:50.553Z,2.30
2023-02-14T18:05:17.269Z,2.20
2023-02-14T18:07:44.001Z,2.20
2023-02-14T18:10:11.564Z,2.20
2023-02-14T18:12:38.456Z,2.10
2023-02-14T18:15:05.937Z,2.10
2023-02-14T18:17:32.593Z,2.00
2023-02-14T18:19:59.297Z,2.00
2023-02-14T18:22:28.270Z,2.00
2023-02-14T18:24:58.538Z,2.00
2023-02-14T18:27:26.218Z,2.00
2023-02-14T18:29:52.964Z,2.00
2023-02-14T18:32:19.651Z,2.00
2023-02-14T18:34:46.340Z,2.00
2023-02-14T18:37:14.206Z,2.00
2023-02-14T18:39:40.951Z,1.90
2023-02-14T18:42:07.644Z,1.90
2023-02-14T18:44:34.396Z,1.90
2023-02-14T18:47:01.991Z,1.90
2023-02-14T18:49:28.947Z,2.00
2023-02-14T18:51:57.259Z,2.00
2023-02-14T18:54:24.316Z,2.10
2023-02-14T18:56:51.012Z,2.10
2023-02-14T18:59:17.837Z,2.20
2023-02-14T19:01:45.530Z,2.20
2023-02-14T19:04:13.318Z,2.20
2023-02-14T19:06:41.324Z,2.30
2023-02-14T19:09:10.505Z,2.40
2023-02-14T19:11:37.638Z,2.40
2023-02-14T19:14:09.780Z,2.50
2023-02-14T19:16:41.913Z,2.50
2023-02-14T19:19:08.764Z,2.50
2023-02-14T19:21:36.649Z,2.50
2023-02-14T19:24:06.901Z,2.50
2023-02-14T19:26:39.647Z,2.50
2023-02-14T19:29:17.203Z,2.50
2023-02-14T19:31:48.227Z,2.60
2023-02-14T19:34:21.058Z,2.60
2023-02-14T19:36:49.080Z,2.60
2023-02-14T19:39:16.155Z,2.60
2023-02-14T19:41:43.145Z,2.70
2023-02-14T19:44:13.758Z,2.70
2023-02-14T19:46:42.385Z,2.70
2023-02-14T19:49:12.815Z,2.80
2023-02-14T19:51:39.926Z,2.80
2023-02-14T19:54:09.654Z,2.90
2023-02-14T19:56:39.527Z,2.90
2023-02-14T19:59:09.972Z,3.00
2023-02-14T20:01:42.855Z,3.00
2023-02-14T20:04:13.685Z,3.00
2023-02-14T20:06:41.243Z,3.10
2023-02-14T20:09:08.873Z,3.10
2023-02-14T20:11:46.339Z,3.00
2023-02-14T20:14:14.159Z,3.00
2023-02-14T20:16:41.151Z,3.10
2023-02-14T20:19:12.116Z,3.10
2023-02-14T20:21:41.812Z,3.10
2023-02-14T20:24:09.751Z,3.20
2023-02-14T20:26:39.349Z,3.20
2023-02-14T20:29:09.664Z,3.20
2023-02-14T20:31:40.038Z,3.30
2023-02-14T20:34:07.351Z,3.30
2023-02-14T20:36:34.018Z,3.40
2023-02-14T20:39:03.145Z,3.40
2023-02-14T20:41:30.907Z,3.30
2023-02-14T20:44:06.276Z,3.10
2023-02-14T20:46:33.301Z,3.30
2023-02-14T20:49:00.100Z,3.20
2023-02-14T20:51:27.295Z,3.20
2023-02-14T20:53:54.755Z,3.20
2023-02-14T20:56:23.494Z,3.20
2023-02-14T20:58:50.701Z,3.30
2023-02-14T21:01:22.933Z,3.30
2023-02-14T21:03:51.983Z,3.40
2023-02-14T21:06:20.943Z,3.50
2023-02-14T21:08:48.549Z,3.50
2023-02-14T21:11:18.804Z,3.50
2023-02-14T21:13:45.460Z,3.50
2023-02-14T21:16:17.369Z,3.50
2023-02-14T21:18:48.500Z,3.60
2023-02-14T21:21:19.974Z,3.60
2023-02-14T21:23:49.116Z,3.60
2023-02-14T21:26:16.271Z,3.50
2023-02-14T21:28:43.598Z,3.30
2023-02-14T21:31:13.195Z,3.20
2023-02-14T21:33:40.060Z,3.10
2023-02-14T21:36:11.011Z,2.90
2023-02-14T21:38:37.793Z,2.90
2023-02-14T21:41:25.721Z,3.00
2023-02-14T21:43:53.980Z,2.90
2023-02-14T21:46:27.584Z,2.80
2023-02-14T21:49:14.114Z,2.70
2023-02-14T21:51:41.439Z,2.90
2023-02-14T21:54:08.814Z,2.90
2023-02-14T21:56:36.958Z,2.90
2023-02-14T21:59:04.479Z,3.00
2023-02-14T22:01:34.098Z,3.10
2023-02-14T22:04:01.585Z,3.10
2023-02-14T22:06:28.247Z,3.10
2023-02-14T22:08:57.140Z,3.20
2023-02-14T22:11:25.648Z,3.20
2023-02-14T22:13:52.304Z,3.10
2023-02-14T22:16:20.897Z,3.10
2023-02-14T22:18:47.968Z,3.10
2023-02-14T22:21:22.301Z,3.10
2023-02-14T22:23:49.017Z,3.10
2023-02-14T22:26:22.746Z,3.20
2023-02-14T22:28:51.141Z,3.30
2023-02-14T22:31:18.848Z,3.20
2023-02-14T22:33:46.366Z,3.10
2023-02-14T22:36:13.029Z,3.10
2023-02-14T22:38:39.740Z,3.20
2023-02-14T22:41:09.634Z,3.30
2023-02-14T22:43:37.492Z,3.30
2023-02-14T22:46:24.260Z,3.40
2023-02-14T22:48:51.840Z,3.40
2023-02-14T22:51:32.951Z,3.50
2023-02-14T22:54:09.175Z,3.50
2023-02-14T22:56:40.962Z,3.50
2023-02-14T22:59:23.058Z,3.50
2023-02-14T23:01:51.500Z,3.50
2023-02-14T23:04:21.577Z,3.50
2023-02-14T23:06:48.980Z,3.60
2023-02-14T23:09:16.096Z,3.60
2023-02-14T23:11:44.716Z,3.60
2023-02-14T23:14:31.816Z,3.60
2023-02-14T23:17:25.056Z,3.70
2023-02-14T23:20:10.471Z,3.70
2023-02-14T23:22:39.483Z,3.70
2023-02-14T23:25:09.051Z,3.80
2023-02-14T23:27:44.500Z,3.80
2023-02-14T23:30:14.649Z,3.80
2023-02-14T23:32:42.022Z,3.80
2023-02-14T23:35:09.477Z,3.80
2023-02-14T23:37:36.208Z,3.80
2023-02-14T23:40:03.976Z,3.80
2023-02-14T23:42:30.693Z,3.70
2023-02-14T23:45:17.478Z,3.50
2023-02-14T23:47:44.157Z,3.40
2023-02-14T23:50:10.943Z,3.30
2023-02-14T23:52:41.536Z,3.30
2023-02-14T23:55:08.801Z,3.30
2023-02-14T23:57:35.464Z,3.20
